Washburn, Tennessee
Current Conditions -  °F | °C
As of 12:15 AM on Thursday 23 Oct 2014 (Local Time) from KMOR Reporting Station
Overcast Overcast  
Wind Chill: 46°   Ceiling: 3200
Heat Index: 46°   Visibility: 10mi
Dew Point: 43°   Wind: 0mph
Humidity: 87%   Direction: NA
Pressure: 30.22"   Gusts: NA
Location:  36.3°N, 83.6°W
Report Text: KMOR 230415Z AUTO 00000KT 10SM OVC032 08/06 A3022 RMK
Loading
Personal Weather Stations






























Interactive Weather Map
Tropical Storm Tracking
New forecast layout! Learn more

10-Day Weather Forecast

Advertisements
Track Severe Weather on mobile